Time;durP1;ratioP1;P1;durP2;ratioP2;P2;SDS_P1;SDS_P2;PMS_P1;PMS_P2;Temp;Humidity;BMP_temperature;BMP_pressure;BME280_temperature;BME280_humidity;BME280_pressure;Samples;Min_cycle;Max_cycle;Signal;HPM_P1;HPM_P2
2021/12/27 00:00:18;;;;;;;16.33;10.23;;;;;;;;;;5045550;28;20041;-84
2021/12/27 00:02:44;;;;;;;20.70;11.40;;;;;;;;;;5040040;28;20025;-83
2021/12/27 00:05:10;;;;;;;15.23;10.38;;;;;;;;;;5035788;28;20091;-83
2021/12/27 00:07:36;;;;;;;15.60;10.60;;;;;;;;;;5041964;28;20464;-82
2021/12/27 00:10:03;;;;;;;18.40;12.57;;;;;;;;;;5035909;28;20052;-83
2021/12/27 00:12:29;;;;;;;18.48;12.23;;;;;;;;;;5049517;28;20051;-83
2021/12/27 00:14:54;;;;;;;21.60;12.20;;;;;;;;;;5049566;28;20465;-83
2021/12/27 00:17:20;;;;;;;19.23;11.23;;;;;;;;;;5038676;28;20025;-84
2021/12/27 00:19:47;;;;;;;16.13;10.05;;;;;;;;;;5045294;28;20103;-83
2021/12/27 00:22:12;;;;;;;13.75;9.55;;;;;;;;;;5050031;28;20115;-85
2021/12/27 00:24:38;;;;;;;14.73;9.80;;;;;;;;;;5048284;28;20025;-87
2021/12/27 00:27:04;;;;;;;14.88;8.60;;;;;;;;;;5039549;28;20032;-83
2021/12/27 00:29:30;;;;;;;17.58;12.75;;;;;;;;;;5031556;28;20036;-83
2021/12/27 00:31:56;;;;;;;17.38;12.23;;;;;;;;;;5049291;28;20060;-82
2021/12/27 00:34:21;;;;;;;22.80;12.98;;;;;;;;;;5046902;28;20060;-83
2021/12/27 00:36:47;;;;;;;23.58;13.73;;;;;;;;;;5049433;28;20032;-85
2021/12/27 00:39:12;;;;;;;14.88;8.38;;;;;;;;;;5039442;28;20029;-84
2021/12/27 00:41:38;;;;;;;14.50;9.25;;;;;;;;;;5052714;28;20025;-85
2021/12/27 00:44:04;;;;;;;12.90;9.35;;;;;;;;;;5052785;28;20028;-85
2021/12/27 00:46:29;;;;;;;17.75;10.35;;;;;;;;;;5047377;28;20033;-85
2021/12/27 00:48:56;;;;;;;20.98;10.20;;;;;;;;;;5051884;28;20048;-85
2021/12/27 00:51:21;;;;;;;15.30;9.85;;;;;;;;;;5053482;28;20036;-84
2021/12/27 00:53:47;;;;;;;13.13;8.05;;;;;;;;;;5050314;28;20029;-85
2021/12/27 00:56:12;;;;;;;13.13;7.38;;;;;;;;;;5042349;28;20025;-83
2021/12/27 00:58:38;;;;;;;11.60;6.05;;;;;;;;;;5038600;28;20108;-83
2021/12/27 01:01:04;;;;;;;9.00;5.80;;;;;;;;;;5050844;28;20057;-84
2021/12/27 01:03:30;;;;;;;8.05;4.47;;;;;;;;;;5044685;28;20361;-84
2021/12/27 01:05:55;;;;;;;4.13;2.17;;;;;;;;;;5049863;28;20078;-82
2021/12/27 01:08:21;;;;;;;2.53;2.00;;;;;;;;;;5045372;28;20389;-83
2021/12/27 01:13:37;;;;;;;5.90;3.95;;;;;;;;;;5045544;28;20123;-81
2021/12/27 01:18:35;;;;;;;11.43;6.72;;;;;;;;;;5046329;28;20099;-84
2021/12/27 01:21:01;;;;;;;12.43;9.07;;;;;;;;;;5050731;28;20102;-85
2021/12/27 01:23:27;;;;;;;20.17;10.95;;;;;;;;;;5044750;28;20033;-84
2021/12/27 01:25:53;;;;;;;26.08;14.25;;;;;;;;;;5050440;28;20021;-83
2021/12/27 01:28:19;;;;;;;24.23;14.55;;;;;;;;;;5048095;28;20040;-83
2021/12/27 01:30:48;;;;;;;21.98;14.30;;;;;;;;;;5045957;28;20086;-82
2021/12/27 01:33:18;;;;;;;16.77;11.77;;;;;;;;;;5046675;28;20087;-84
2021/12/27 01:35:44;;;;;;;;;;;;;;;;;;5050621;28;21590;-83
2021/12/27 01:38:11;;;;;;;22.23;12.13;;;;;;;;;;5048515;28;19917;-84
2021/12/27 01:40:37;;;;;;;17.65;11.32;;;;;;;;;;5047398;28;20021;-83
2021/12/27 01:43:21;;;;;;;20.33;11.77;;;;;;;;;;5041928;28;20480;-84
2021/12/27 01:45:50;;;;;;;16.13;10.70;;;;;;;;;;5044151;28;20225;-84
2021/12/27 01:48:20;;;;;;;18.65;10.15;;;;;;;;;;5048087;28;20052;-83
2021/12/27 01:50:46;;;;;;;15.18;9.30;;;;;;;;;;5043842;28;20554;-85
2021/12/27 01:53:13;;;;;;;16.00;9.65;;;;;;;;;;5032184;28;20029;-86
2021/12/27 01:55:39;;;;;;;13.55;9.43;;;;;;;;;;5049949;28;20039;-83
2021/12/27 01:58:09;;;;;;;18.63;11.45;;;;;;;;;;5041710;28;20036;-85
2021/12/27 02:00:36;;;;;;;;;;;;;;;;;;5032888;28;20021;-84
2021/12/27 02:03:03;;;;;;;13.57;7.40;;;;;;;;;;5042175;28;19944;-83
2021/12/27 02:05:30;;;;;;;12.98;6.15;;;;;;;;;;5044423;28;20027;-84
2021/12/27 02:07:55;;;;;;;11.10;6.88;;;;;;;;;;5032838;28;20499;-84
2021/12/27 02:10:21;;;;;;;14.45;8.85;;;;;;;;;;5047059;28;20033;-85
2021/12/27 02:12:46;;;;;;;13.07;10.00;;;;;;;;;;5047815;28;20024;-85
2021/12/27 02:15:13;;;;;;;19.52;10.82;;;;;;;;;;5047568;28;20048;-83
2021/12/27 02:17:42;;;;;;;19.52;11.30;;;;;;;;;;5028331;28;20392;-83
2021/12/27 02:20:29;;;;;;;20.85;12.02;;;;;;;;;;5050387;28;20473;-84
2021/12/27 02:23:00;;;;;;;16.77;10.73;;;;;;;;;;5046666;28;20044;-86
2021/12/27 02:25:27;;;;;;;17.23;10.27;;;;;;;;;;5047533;28;20354;-84
2021/12/27 02:27:53;;;;;;;17.65;10.32;;;;;;;;;;5032306;28;20484;-84
2021/12/27 02:30:23;;;;;;;13.60;9.10;;;;;;;;;;5033945;28;20477;-85
2021/12/27 02:32:57;;;;;;;15.30;9.75;;;;;;;;;;5047096;28;20021;-85
2021/12/27 02:35:31;;;;;;;17.90;10.27;;;;;;;;;;5051626;28;20029;-84
2021/12/27 02:38:00;;;;;;;15.10;10.48;;;;;;;;;;5032297;28;20388;-84
2021/12/27 02:40:28;;;;;;;13.82;10.65;;;;;;;;;;5036026;28;20025;-84
2021/12/27 02:43:00;;;;;;;17.65;10.98;;;;;;;;;;5040270;28;20037;-83
2021/12/27 02:45:28;;;;;;;19.50;11.18;;;;;;;;;;5046710;28;20021;-84
2021/12/27 02:47:53;;;;;;;17.55;11.45;;;;;;;;;;5047272;28;20469;-85
2021/12/27 02:50:20;;;;;;;15.27;10.43;;;;;;;;;;5033560;28;20025;-84
2021/12/27 02:52:46;;;;;;;17.27;11.88;;;;;;;;;;5034134;28;20034;-83
2021/12/27 02:55:15;;;;;;;17.58;11.20;;;;;;;;;;5042654;28;20079;-84
2021/12/27 02:57:47;;;;;;;19.33;10.85;;;;;;;;;;5028808;28;20052;-83
2021/12/27 03:00:27;;;;;;;18.40;10.95;;;;;;;;;;5039229;28;20036;-83
2021/12/27 03:02:54;;;;;;;19.20;11.65;;;;;;;;;;5051474;28;20033;-86
2021/12/27 03:05:21;;;;;;;17.45;11.05;;;;;;;;;;5040067;28;20025;-85
2021/12/27 03:07:49;;;;;;;19.02;10.60;;;;;;;;;;5050615;28;20466;-83
2021/12/27 03:10:18;;;;;;;17.63;9.38;;;;;;;;;;5038683;28;20017;-87
2021/12/27 03:12:45;;;;;;;15.32;8.50;;;;;;;;;;5047041;28;20052;-84
2021/12/27 03:15:13;;;;;;;12.65;7.45;;;;;;;;;;5040131;28;20532;-85
2021/12/27 03:17:42;;;;;;;11.15;6.53;;;;;;;;;;5040180;28;20108;-85
2021/12/27 03:20:08;;;;;;;8.85;5.45;;;;;;;;;;5033532;28;20032;-85
2021/12/27 03:22:37;;;;;;;6.68;4.50;;;;;;;;;;5063784;28;20052;-85
2021/12/27 03:25:04;;;;;;;6.82;4.70;;;;;;;;;;5038496;28;20437;-84
2021/12/27 03:27:30;;;;;;;9.18;4.85;;;;;;;;;;5051127;28;20060;-85
2021/12/27 03:29:55;;;;;;;7.45;5.10;;;;;;;;;;5055555;28;20060;-85
2021/12/27 03:32:22;;;;;;;10.65;4.80;;;;;;;;;;5038281;28;20029;-85
2021/12/27 03:34:56;;;;;;;7.65;5.20;;;;;;;;;;5056826;28;20059;-84
2021/12/27 03:37:22;;;;;;;10.27;6.57;;;;;;;;;;5060947;28;20077;-85
2021/12/27 03:39:48;;;;;;;13.95;9.30;;;;;;;;;;5057731;28;20434;-85
2021/12/27 03:42:15;;;;;;;10.13;6.72;;;;;;;;;;5048098;28;20037;-85
2021/12/27 03:44:41;;;;;;;12.40;7.60;;;;;;;;;;5063571;28;20032;-84
2021/12/27 03:47:07;;;;;;;11.43;7.80;;;;;;;;;;5043371;28;20119;-84
2021/12/27 03:49:32;;;;;;;12.02;7.57;;;;;;;;;;5040577;28;20553;-85
2021/12/27 03:51:58;;;;;;;14.48;7.05;;;;;;;;;;5061229;28;20689;-85
2021/12/27 03:54:23;;;;;;;10.18;6.72;;;;;;;;;;5041886;28;20079;-84
2021/12/27 03:56:48;;;;;;;7.45;6.07;;;;;;;;;;5058471;28;20057;-84
2021/12/27 03:59:22;;;;;;;12.23;7.68;;;;;;;;;;5058438;28;20469;-83
2021/12/27 04:01:48;;;;;;;10.48;7.55;;;;;;;;;;5049476;28;20171;-83
2021/12/27 04:04:14;;;;;;;9.82;6.55;;;;;;;;;;5053683;28;20478;-84
2021/12/27 04:06:39;;;;;;;11.43;6.68;;;;;;;;;;5057053;28;20032;-83
2021/12/27 04:09:05;;;;;;;11.05;7.35;;;;;;;;;;5057411;28;20042;-83
2021/12/27 04:11:31;;;;;;;10.73;6.38;;;;;;;;;;5042063;28;20025;-84
2021/12/27 04:13:58;;;;;;;11.73;7.05;;;;;;;;;;5043593;28;20039;-84
2021/12/27 04:16:24;;;;;;;10.82;6.53;;;;;;;;;;5043345;28;20041;-86
2021/12/27 04:18:53;;;;;;;7.10;4.68;;;;;;;;;;5060123;28;20372;-85
2021/12/27 04:21:18;;;;;;;6.05;4.45;;;;;;;;;;5066977;28;20407;-83
2021/12/27 04:23:43;;;;;;;8.18;5.13;;;;;;;;;;5039513;28;20033;-84
2021/12/27 04:26:09;;;;;;;6.80;4.95;;;;;;;;;;5056668;28;20021;-84
2021/12/27 04:28:34;;;;;;;8.18;5.85;;;;;;;;;;5053867;28;20098;-84
2021/12/27 04:31:00;;;;;;;9.43;5.22;;;;;;;;;;5053302;28;20048;-84
2021/12/27 04:33:26;;;;;;;9.73;5.78;;;;;;;;;;5059097;28;20407;-84
2021/12/27 04:35:52;;;;;;;8.48;5.70;;;;;;;;;;5066717;28;20079;-84
2021/12/27 04:38:17;;;;;;;10.32;6.68;;;;;;;;;;5052422;28;20021;-83
2021/12/27 04:40:46;;;;;;;9.30;5.63;;;;;;;;;;5053303;28;20032;-84
2021/12/27 04:43:16;;;;;;;11.60;7.65;;;;;;;;;;5038424;28;21236;-84
2021/12/27 04:45:42;;;;;;;;;;;;;;;;;;5045793;28;20468;-83
2021/12/27 04:48:08;;;;;;;6.97;5.03;;;;;;;;;;5042137;28;19913;-83
2021/12/27 04:50:34;;;;;;;7.88;4.55;;;;;;;;;;5055357;28;20029;-83
2021/12/27 04:53:00;;;;;;;12.07;5.88;;;;;;;;;;5053036;28;20091;-84
2021/12/27 04:55:26;;;;;;;8.20;5.85;;;;;;;;;;5052816;28;20056;-83
2021/12/27 04:57:53;;;;;;;8.80;5.90;;;;;;;;;;5045208;28;20060;-83
2021/12/27 05:00:20;;;;;;;12.30;6.13;;;;;;;;;;5053086;28;20511;-83
2021/12/27 05:02:45;;;;;;;8.18;5.78;;;;;;;;;;5058445;28;20021;-83
2021/12/27 05:05:11;;;;;;;8.13;6.05;;;;;;;;;;5065482;28;20031;-84
2021/12/27 05:07:36;;;;;;;9.85;6.72;;;;;;;;;;5043045;28;20032;-83
2021/12/27 05:10:06;;;;;;;7.35;5.82;;;;;;;;;;5057648;28;20112;-84
2021/12/27 05:12:32;;;;;;;10.73;6.32;;;;;;;;;;5060300;28;20036;-84
2021/12/27 05:14:57;;;;;;;7.85;5.68;;;;;;;;;;5041555;28;20045;-84
2021/12/27 05:17:23;;;;;;;10.93;6.80;;;;;;;;;;5045517;28;20029;-83
2021/12/27 05:19:48;;;;;;;9.35;6.25;;;;;;;;;;5044954;28;20423;-85
2021/12/27 05:22:14;;;;;;;8.20;6.30;;;;;;;;;;5050376;28;20139;-83
2021/12/27 05:24:39;;;;;;;12.98;8.45;;;;;;;;;;5043099;28;20464;-84
2021/12/27 05:27:05;;;;;;;11.60;8.65;;;;;;;;;;5051228;28;20029;-83
2021/12/27 05:29:31;;;;;;;10.32;7.28;;;;;;;;;;5044265;28;20025;-85
2021/12/27 05:32:01;;;;;;;11.77;8.40;;;;;;;;;;5048165;28;20029;-83
2021/12/27 05:34:28;;;;;;;9.90;6.38;;;;;;;;;;5037999;28;20028;-85
2021/12/27 05:36:54;;;;;;;10.55;6.95;;;;;;;;;;5049466;28;20029;-85
2021/12/27 05:39:21;;;;;;;13.00;7.75;;;;;;;;;;5047677;28;20044;-84
2021/12/27 05:41:47;;;;;;;11.13;7.10;;;;;;;;;;5039647;28;20039;-83
2021/12/27 05:44:14;;;;;;;11.05;6.25;;;;;;;;;;5048139;28;20485;-83
2021/12/27 05:46:40;;;;;;;8.77;5.30;;;;;;;;;;5047174;28;20028;-85
2021/12/27 05:49:06;;;;;;;8.10;6.00;;;;;;;;;;5030025;28;20025;-84
2021/12/27 05:51:31;;;;;;;8.10;4.80;;;;;;;;;;5052485;28;20086;-83
2021/12/27 05:53:57;;;;;;;8.13;5.07;;;;;;;;;;5034022;28;20032;-84
2021/12/27 05:56:22;;;;;;;8.75;6.30;;;;;;;;;;5049499;28;20040;-86
2021/12/27 05:58:47;;;;;;;11.27;9.05;;;;;;;;;;5046839;28;20511;-83
2021/12/27 06:01:13;;;;;;;13.13;8.43;;;;;;;;;;5043592;28;20025;-85
2021/12/27 06:03:39;;;;;;;8.77;6.38;;;;;;;;;;5036730;28;20029;-85
2021/12/27 06:06:04;;;;;;;11.63;6.63;;;;;;;;;;5034821;28;20044;-84
2021/12/27 06:08:30;;;;;;;9.02;6.75;;;;;;;;;;5049891;28;20036;-83
2021/12/27 06:10:55;;;;;;;11.32;5.65;;;;;;;;;;5038137;28;20025;-84
2021/12/27 06:13:21;;;;;;;7.82;5.55;;;;;;;;;;5041759;28;20051;-84
2021/12/27 06:15:46;;;;;;;10.32;5.45;;;;;;;;;;5040197;28;20029;-83
2021/12/27 06:18:12;;;;;;;9.07;5.80;;;;;;;;;;5034145;28;20044;-85
2021/12/27 06:20:37;;;;;;;6.93;5.10;;;;;;;;;;5044105;28;20025;-85
2021/12/27 06:23:03;;;;;;;8.35;4.53;;;;;;;;;;5033705;28;20127;-84
2021/12/27 06:25:28;;;;;;;11.18;5.35;;;;;;;;;;5046335;28;20067;-84
2021/12/27 06:27:55;;;;;;;7.70;5.32;;;;;;;;;;5047339;28;20053;-85
2021/12/27 06:30:21;;;;;;;7.10;5.55;;;;;;;;;;5046675;28;20031;-84
2021/12/27 06:32:47;;;;;;;10.45;5.95;;;;;;;;;;5042390;28;20029;-84
2021/12/27 06:35:14;;;;;;;11.75;5.85;;;;;;;;;;5036166;28;20488;-84
2021/12/27 06:37:42;;;;;;;11.35;6.30;;;;;;;;;;5041567;28;20128;-85
2021/12/27 06:40:09;;;;;;;10.80;7.00;;;;;;;;;;5044578;28;20041;-82
2021/12/27 06:42:35;;;;;;;11.05;6.45;;;;;;;;;;5046999;28;20031;-85
2021/12/27 06:45:01;;;;;;;11.30;6.70;;;;;;;;;;5039510;28;20030;-85
2021/12/27 06:47:26;;;;;;;8.07;5.88;;;;;;;;;;5045294;28;20498;-84
2021/12/27 06:49:53;;;;;;;4.05;2.90;;;;;;;;;;5045355;28;20100;-84
2021/12/27 06:52:18;;;;;;;10.70;7.57;;;;;;;;;;5032049;28;20072;-84
2021/12/27 06:54:44;;;;;;;11.73;6.60;;;;;;;;;;5038051;28;20441;-85
2021/12/27 06:57:10;;;;;;;13.35;8.45;;;;;;;;;;5035330;28;20037;-85
2021/12/27 06:59:37;;;;;;;11.77;7.60;;;;;;;;;;5033828;28;20032;-85
2021/12/27 07:02:03;;;;;;;8.80;7.00;;;;;;;;;;5034389;28;20017;-84
2021/12/27 07:04:31;;;;;;;10.32;7.13;;;;;;;;;;5039075;28;20037;-84
2021/12/27 07:06:56;;;;;;;11.48;7.35;;;;;;;;;;5058967;28;20492;-86
2021/12/27 07:09:22;;;;;;;11.80;7.40;;;;;;;;;;5051870;28;20078;-85
2021/12/27 07:11:47;;;;;;;12.88;7.05;;;;;;;;;;5043258;28;20029;-85
2021/12/27 07:14:13;;;;;;;10.98;7.25;;;;;;;;;;5044732;28;20380;-84
2021/12/27 07:16:38;;;;;;;14.25;7.90;;;;;;;;;;5043441;28;20512;-86
2021/12/27 07:19:04;;;;;;;10.80;7.70;;;;;;;;;;5037668;28;20369;-84
2021/12/27 07:21:29;;;;;;;11.60;7.80;;;;;;;;;;5041593;28;20073;-83
2021/12/27 07:23:55;;;;;;;11.18;7.75;;;;;;;;;;5043223;28;20372;-85
2021/12/27 07:26:22;;;;;;;11.27;6.95;;;;;;;;;;5048930;28;20542;-85
2021/12/27 07:28:48;;;;;;;10.32;7.05;;;;;;;;;;5052083;28;20100;-83
2021/12/27 07:31:13;;;;;;;7.53;4.93;;;;;;;;;;5046515;28;20104;-84
2021/12/27 07:33:39;;;;;;;7.82;5.05;;;;;;;;;;5053689;28;20114;-83
2021/12/27 07:36:10;;;;;;;7.75;5.78;;;;;;;;;;5049461;28;20701;-84
2021/12/27 07:38:41;;;;;;;9.07;5.95;;;;;;;;;;5044316;28;20029;-83
2021/12/27 07:41:07;;;;;;;11.85;6.85;;;;;;;;;;5042325;28;20025;-86
2021/12/27 07:43:32;;;;;;;11.10;6.57;;;;;;;;;;5035488;28;20475;-83
2021/12/27 07:45:58;;;;;;;42.33;14.93;;;;;;;;;;5033617;28;20117;-86
2021/12/27 07:48:24;;;;;;;21.17;9.38;;;;;;;;;;5041451;28;20056;-87
2021/12/27 07:50:49;;;;;;;13.13;7.78;;;;;;;;;;5052282;28;20456;-86
2021/12/27 07:53:15;;;;;;;8.85;4.68;;;;;;;;;;5042118;28;20035;-89
2021/12/27 07:55:41;;;;;;;7.47;4.93;;;;;;;;;;5048018;28;20025;-86
2021/12/27 07:58:07;;;;;;;9.85;4.40;;;;;;;;;;5040557;28;20032;-84
2021/12/27 08:00:32;;;;;;;18.42;11.25;;;;;;;;;;5051791;28;20132;-83
2021/12/27 08:02:59;;;;;;;26.27;13.93;;;;;;;;;;5053728;28;20040;-82
2021/12/27 08:05:25;;;;;;;66.03;35.88;;;;;;;;;;5045014;28;20040;-79
2021/12/27 08:07:51;;;;;;;13.43;5.75;;;;;;;;;;5052600;28;20115;-79
2021/12/27 08:10:16;;;;;;;8.15;4.85;;;;;;;;;;5053240;28;20388;-79
2021/12/27 08:12:43;;;;;;;8.88;4.95;;;;;;;;;;5054072;28;20421;-80
2021/12/27 08:15:11;;;;;;;12.63;5.00;;;;;;;;;;5049655;28;20025;-78
2021/12/27 08:17:37;;;;;;;13.35;5.68;;;;;;;;;;5046242;28;20491;-79
2021/12/27 08:20:05;;;;;;;17.02;5.97;;;;;;;;;;5052200;28;20124;-80
2021/12/27 08:22:31;;;;;;;6.05;4.10;;;;;;;;;;5052844;28;20048;-79
2021/12/27 08:24:56;;;;;;;8.85;5.43;;;;;;;;;;5035091;28;20469;-79
2021/12/27 08:27:23;;;;;;;13.93;8.65;;;;;;;;;;5053412;28;20033;-79
2021/12/27 08:29:49;;;;;;;6.57;4.60;;;;;;;;;;5036384;28;20528;-79
2021/12/27 08:32:15;;;;;;;12.50;6.10;;;;;;;;;;5051951;28;20183;-79
2021/12/27 08:34:40;;;;;;;6.50;3.85;;;;;;;;;;5052351;28;20123;-78
2021/12/27 08:37:06;;;;;;;4.28;2.30;;;;;;;;;;5053461;28;20109;-79
2021/12/27 08:39:34;;;;;;;6.72;3.05;;;;;;;;;;5058681;28;20037;-79
2021/12/27 08:42:00;;;;;;;23.95;4.85;;;;;;;;;;5037687;28;20052;-78
2021/12/27 08:44:26;;;;;;;9.50;4.68;;;;;;;;;;5053110;28;20016;-78
2021/12/27 08:46:52;;;;;;;10.15;4.85;;;;;;;;;;5061783;28;20388;-79
2021/12/27 08:49:17;;;;;;;10.27;7.30;;;;;;;;;;5041408;28;20025;-79
2021/12/27 08:51:43;;;;;;;7.50;5.13;;;;;;;;;;5038817;28;20028;-78
2021/12/27 08:54:09;;;;;;;10.10;6.30;;;;;;;;;;5053024;28;20032;-82
2021/12/27 08:56:36;;;;;;;4.28;2.67;;;;;;;;;;5050973;28;20022;-79
2021/12/27 08:59:01;;;;;;;5.72;3.50;;;;;;;;;;5049619;28;20044;-81
2021/12/27 09:01:27;;;;;;;7.47;3.75;;;;;;;;;;5037646;28;20021;-82
2021/12/27 09:03:53;;;;;;;5.13;2.72;;;;;;;;;;5066042;28;20031;-82
2021/12/27 09:06:18;;;;;;;6.00;2.65;;;;;;;;;;5056358;28;20025;-81
2021/12/27 09:08:44;;;;;;;3.67;2.33;;;;;;;;;;5052824;28;20452;-80
2021/12/27 09:11:09;;;;;;;4.10;2.55;;;;;;;;;;5052523;28;20029;-82
2021/12/27 09:13:38;;;;;;;7.45;3.60;;;;;;;;;;5053036;28;20446;-81
2021/12/27 09:16:05;;;;;;;6.22;3.67;;;;;;;;;;5051666;28;20092;-82
2021/12/27 09:18:32;;;;;;;9.95;5.82;;;;;;;;;;5054018;28;20111;-82
2021/12/27 09:20:58;;;;;;;10.90;6.63;;;;;;;;;;5051774;28;20045;-80
2021/12/27 09:23:24;;;;;;;12.77;8.63;;;;;;;;;;5048519;28;20487;-80
2021/12/27 09:25:49;;;;;;;12.93;6.13;;;;;;;;;;5048740;28;20021;-80
2021/12/27 09:28:15;;;;;;;6.90;3.70;;;;;;;;;;5030742;28;20083;-80
2021/12/27 09:30:42;;;;;;;5.95;3.72;;;;;;;;;;5048467;28;20028;-79
2021/12/27 09:33:07;;;;;;;9.18;4.97;;;;;;;;;;5045764;28;20679;-79
2021/12/27 09:35:34;;;;;;;7.97;3.75;;;;;;;;;;5032244;28;20032;-80
2021/12/27 09:37:59;;;;;;;5.80;4.10;;;;;;;;;;5030021;28;20048;-85
2021/12/27 09:40:26;;;;;;;9.40;4.80;;;;;;;;;;5033124;28;20484;-81
2021/12/27 09:42:52;;;;;;;6.57;4.45;;;;;;;;;;5045822;28;20098;-81
2021/12/27 09:45:20;;;;;;;6.47;3.45;;;;;;;;;;5046120;28;20464;-81
2021/12/27 09:47:47;;;;;;;6.22;3.63;;;;;;;;;;5048801;28;20082;-80
2021/12/27 09:50:18;;;;;;;2.92;2.00;;;;;;;;;;5048752;28;20107;-81
2021/12/27 09:52:45;;;;;;;4.35;1.33;;;;;;;;;;5030651;28;20037;-81
2021/12/27 09:55:11;;;;;;;4.13;1.95;;;;;;;;;;5033980;28;20037;-80
2021/12/27 09:57:37;;;;;;;4.97;2.88;;;;;;;;;;5042891;28;20059;-80
2021/12/27 10:00:05;;;;;;;7.65;4.97;;;;;;;;;;5042897;28;20033;-80
2021/12/27 10:02:34;;;;;;;6.97;4.40;;;;;;;;;;5030572;28;20035;-81
2021/12/27 10:05:00;;;;;;;8.50;5.15;;;;;;;;;;5030630;28;20039;-83
2021/12/27 10:07:27;;;;;;;16.02;10.00;;;;;;;;;;5028388;28;20357;-81
2021/12/27 10:09:55;;;;;;;17.08;7.28;;;;;;;;;;5048475;28;20105;-81
2021/12/27 10:12:23;;;;;;;7.75;4.32;;;;;;;;;;5048321;28;20060;-82
2021/12/27 10:14:55;;;;;;;12.48;5.85;;;;;;;;;;5032792;28;20036;-81
2021/12/27 10:17:20;;;;;;;7.70;4.65;;;;;;;;;;5032531;28;20029;-80
2021/12/27 10:19:55;;;;;;;12.75;7.25;;;;;;;;;;5039842;28;20039;-81
2021/12/27 10:22:24;;;;;;;10.05;5.88;;;;;;;;;;5043834;28;20044;-80
2021/12/27 10:24:53;;;;;;;9.57;5.55;;;;;;;;;;5033352;28;20126;-81
2021/12/27 10:27:19;;;;;;;7.50;5.53;;;;;;;;;;5054949;28;20376;-81
2021/12/27 10:29:45;;;;;;;16.13;8.60;;;;;;;;;;5046574;28;20033;-81
2021/12/27 10:32:16;;;;;;;11.57;6.15;;;;;;;;;;5031340;28;20025;-82
2021/12/27 10:34:46;;;;;;;13.25;8.13;;;;;;;;;;5049645;28;20388;-82
2021/12/27 10:37:17;;;;;;;5.45;3.10;;;;;;;;;;5052783;28;20051;-81
2021/12/27 10:39:56;;;;;;;3.58;1.55;;;;;;;;;;5058018;28;20121;-80
2021/12/27 10:42:29;;;;;;;3.60;2.28;;;;;;;;;;5049734;28;20530;-80
2021/12/27 10:45:01;;;;;;;3.90;1.50;;;;;;;;;;5046354;28;20159;-81
2021/12/27 10:47:44;;;;;;;2.40;1.42;;;;;;;;;;5058949;28;20342;-81
2021/12/27 10:50:14;;;;;;;5.78;1.92;;;;;;;;;;5045681;28;20033;-80
2021/12/27 10:52:47;;;;;;;2.10;1.40;;;;;;;;;;5053993;28;20051;-82
2021/12/27 10:55:16;;;;;;;2.22;1.38;;;;;;;;;;5058695;28;20021;-79
2021/12/27 10:57:42;;;;;;;3.38;1.35;;;;;;;;;;5052220;28;20024;-81
2021/12/27 11:00:21;;;;;;;4.30;1.30;;;;;;;;;;5056553;28;20388;-80
2021/12/27 11:02:47;;;;;;;4.32;1.73;;;;;;;;;;5055016;28;20021;-80
2021/12/27 11:05:21;;;;;;;2.63;1.35;;;;;;;;;;5045588;28;20442;-80
2021/12/27 11:07:46;;;;;;;3.40;1.30;;;;;;;;;;5035072;28;20164;-80
2021/12/27 11:10:12;;;;;;;2.38;1.15;;;;;;;;;;5053314;28;20108;-80
2021/12/27 11:12:38;;;;;;;2.10;1.00;;;;;;;;;;5038800;28;20033;-80
2021/12/27 11:15:09;;;;;;;2.20;0.82;;;;;;;;;;5058250;28;20033;-80
2021/12/27 11:17:35;;;;;;;1.98;1.00;;;;;;;;;;5054232;28;20056;-80
2021/12/27 11:20:01;;;;;;;1.48;0.90;;;;;;;;;;5037351;28;20064;-80
2021/12/27 11:22:28;;;;;;;3.30;1.00;;;;;;;;;;5021151;28;20049;-80
2021/12/27 11:24:53;;;;;;;4.43;1.23;;;;;;;;;;5033859;28;20393;-81
2021/12/27 11:27:19;;;;;;;2.10;0.88;;;;;;;;;;5033754;28;20030;-80
2021/12/27 11:30:12;;;;;;;3.22;1.00;;;;;;;;;;5033686;28;20029;-80
2021/12/27 11:33:01;;;;;;;2.95;1.00;;;;;;;;;;5033781;28;20021;-81
2021/12/27 11:35:31;;;;;;;3.42;0.95;;;;;;;;;;5030706;28;20034;-80
2021/12/27 11:37:59;;;;;;;;;;;;;;;;;;5029593;28;20056;-81
2021/12/27 11:40:25;;;;;;;1.63;1.08;;;;;;;;;;5027837;28;19917;-81
2021/12/27 11:42:55;;;;;;;3.42;0.98;;;;;;;;;;5031722;28;20429;-80
2021/12/27 11:45:41;;;;;;;2.53;0.82;;;;;;;;;;5015442;28;20124;-81
2021/12/27 11:48:10;;;;;;;2.33;1.00;;;;;;;;;;5032077;28;20424;-80
2021/12/27 11:50:57;;;;;;;1.15;0.88;;;;;;;;;;5027054;28;20021;-81
2021/12/27 11:53:33;;;;;;;1.83;0.90;;;;;;;;;;5024967;28;20026;-80
2021/12/27 11:56:01;;;;;;;2.78;0.93;;;;;;;;;;5036275;28;20036;-81
2021/12/27 11:58:39;;;;;;;4.45;0.90;;;;;;;;;;5039904;28;20032;-81
2021/12/27 12:01:27;;;;;;;1.17;1.05;;;;;;;;;;5007588;28;20374;-80
2021/12/27 12:04:00;;;;;;;2.45;0.98;;;;;;;;;;5017120;28;20041;-79
2021/12/27 12:06:40;;;;;;;2.72;1.17;;;;;;;;;;5028919;28;20461;-80
2021/12/27 12:09:19;;;;;;;5.32;3.20;;;;;;;;;;5033166;28;20033;-80
2021/12/27 12:11:58;;;;;;;2.67;0.98;;;;;;;;;;5032780;28;20099;-82
2021/12/27 12:14:32;;;;;;;3.15;0.70;;;;;;;;;;5030233;28;20050;-80
2021/12/27 12:17:00;;;;;;;1.13;0.80;;;;;;;;;;5032622;28;20080;-81
2021/12/27 12:19:39;;;;;;;0.70;0.50;;;;;;;;;;5032345;28;20536;-82
2021/12/27 12:22:07;;;;;;;1.38;0.65;;;;;;;;;;5027040;28;20080;-80
2021/12/27 12:24:33;;;;;;;2.38;0.55;;;;;;;;;;5052753;28;20036;-80
2021/12/27 12:27:03;;;;;;;1.30;0.95;;;;;;;;;;5053486;28;20029;-87
2021/12/27 12:29:49;;;;;;;3.20;0.88;;;;;;;;;;5052256;28;20040;-81
2021/12/27 12:32:15;;;;;;;1.77;0.80;;;;;;;;;;5047962;28;20056;-83
2021/12/27 12:34:42;;;;;;;1.20;0.70;;;;;;;;;;5054385;28;20039;-79
2021/12/27 12:37:10;;;;;;;1.40;0.73;;;;;;;;;;5049331;28;20047;-83
2021/12/27 12:39:41;;;;;;;3.65;0.90;;;;;;;;;;5053333;28;20024;-83
2021/12/27 12:42:13;;;;;;;4.63;1.20;;;;;;;;;;5052751;28;20047;-79
2021/12/27 12:44:47;;;;;;;1.42;0.80;;;;;;;;;;5050415;28;20025;-79
2021/12/27 12:47:13;;;;;;;1.02;0.70;;;;;;;;;;5053324;28;20036;-80
2021/12/27 12:49:38;;;;;;;2.38;1.17;;;;;;;;;;5053649;28;20022;-80
2021/12/27 12:52:05;;;;;;;1.40;0.80;;;;;;;;;;5053357;28;20021;-81
2021/12/27 12:54:34;;;;;;;2.25;1.02;;;;;;;;;;5053066;28;20372;-77
2021/12/27 12:57:05;;;;;;;3.00;1.52;;;;;;;;;;5052792;28;20076;-80
2021/12/27 12:59:36;;;;;;;1.15;0.70;;;;;;;;;;5052833;28;20508;-80
2021/12/27 13:02:04;;;;;;;1.90;1.00;;;;;;;;;;5052857;28;20035;-82
2021/12/27 13:04:41;;;;;;;3.60;0.95;;;;;;;;;;5052222;28;20053;-79
2021/12/27 13:07:08;;;;;;;2.40;0.77;;;;;;;;;;5049623;28;20095;-82
2021/12/27 13:09:44;;;;;;;2.13;0.73;;;;;;;;;;5034432;28;20024;-81
2021/12/27 13:12:11;;;;;;;0.95;0.73;;;;;;;;;;5030489;28;20037;-80
2021/12/27 13:14:36;;;;;;;3.08;0.88;;;;;;;;;;5034132;28;20035;-80
2021/12/27 13:17:21;;;;;;;1.85;1.08;;;;;;;;;;5052372;28;20025;-80
2021/12/27 13:20:05;;;;;;;1.10;0.57;;;;;;;;;;5031439;28;20033;-80
2021/12/27 13:22:44;;;;;;;5.13;2.60;;;;;;;;;;5048424;28;20060;-81
2021/12/27 13:25:31;;;;;;;2.28;1.23;;;;;;;;;;5048332;28;20488;-80
2021/12/27 13:28:16;;;;;;;1.10;0.50;;;;;;;;;;5022541;28;20037;-79
2021/12/27 13:30:46;;;;;;;1.83;0.70;;;;;;;;;;5043240;28;20483;-80
2021/12/27 13:33:12;;;;;;;1.80;0.80;;;;;;;;;;5034921;28;20041;-79
2021/12/27 13:35:40;;;;;;;2.40;0.65;;;;;;;;;;5049384;28;20056;-80
2021/12/27 13:38:14;;;;;;;4.55;0.80;;;;;;;;;;5049505;28;20108;-79
2021/12/27 13:40:45;;;;;;;2.15;0.73;;;;;;;;;;5046373;28;20504;-80
2021/12/27 13:43:11;;;;;;;3.20;0.82;;;;;;;;;;5034474;28;20104;-80
2021/12/27 13:45:39;;;;;;;1.55;0.68;;;;;;;;;;5050217;28;20413;-79
2021/12/27 13:48:05;;;;;;;1.23;0.50;;;;;;;;;;5045581;28;20385;-80
2021/12/27 13:50:30;;;;;;;0.50;0.50;;;;;;;;;;5033776;28;20029;-79
2021/12/27 13:52:59;;;;;;;2.08;0.90;;;;;;;;;;5046359;28;20029;-79
2021/12/27 13:55:29;;;;;;;0.77;0.60;;;;;;;;;;5034971;28;20075;-81
2021/12/27 13:57:55;;;;;;;1.33;0.60;;;;;;;;;;5040158;28;20427;-80
2021/12/27 14:00:27;;;;;;;1.58;0.95;;;;;;;;;;5042565;28;20049;-80
2021/12/27 14:02:54;;;;;;;1.65;0.88;;;;;;;;;;5047704;28;20044;-82
2021/12/27 14:05:28;;;;;;;2.53;0.70;;;;;;;;;;5048446;28;20075;-81
2021/12/27 14:07:54;;;;;;;1.65;0.88;;;;;;;;;;5048377;28;20079;-80
2021/12/27 14:10:23;;;;;;;1.23;0.70;;;;;;;;;;5044241;28;20024;-80
2021/12/27 14:12:59;;;;;;;1.80;1.00;;;;;;;;;;5049947;28;20036;-81
2021/12/27 14:15:32;;;;;;;1.58;0.80;;;;;;;;;;5050884;28;20491;-80
2021/12/27 14:18:12;;;;;;;5.80;2.35;;;;;;;;;;5048461;28;20056;-80
2021/12/27 14:20:38;;;;;;;;;;;;;;;;;;5044592;28;20117;-81
2021/12/27 14:23:09;;;;;;;4.60;1.73;;;;;;;;;;5055963;28;20062;-80
2021/12/27 14:25:35;;;;;;;2.85;1.75;;;;;;;;;;5052313;28;20110;-79
2021/12/27 14:28:01;;;;;;;4.55;2.40;;;;;;;;;;5053415;28;20060;-82
2021/12/27 14:30:34;;;;;;;8.57;4.22;;;;;;;;;;5057410;28;20037;-80
2021/12/27 14:33:05;;;;;;;5.07;2.83;;;;;;;;;;5054668;28;20040;-80
2021/12/27 14:35:37;;;;;;;4.78;2.95;;;;;;;;;;5049708;28;20025;-80
2021/12/27 14:38:11;;;;;;;4.53;2.67;;;;;;;;;;5049580;28;20048;-81
2021/12/27 14:40:40;;;;;;;8.57;4.35;;;;;;;;;;5048879;28;20055;-80
2021/12/27 14:43:07;;;;;;;5.93;3.45;;;;;;;;;;5057976;28;20384;-80
2021/12/27 14:45:34;;;;;;;9.07;4.22;;;;;;;;;;5050725;28;20028;-79